Time,TemperatureF,DewpointF,PressureIn,WindDirection,WindDirectionDegrees,WindSpeedMPH,WindSpeedGustMPH,Humidity,HourlyPrecipIn,Conditions,Clouds,dailyrainin,SoftwareType,DateUTC
2013-05-18 00:01:00,67.4,66.5,29.87,SSW,207,0.0,1.1,97,0.00,RA,,0.00,WeatherDisplay:10.37,2013-05-18 05:01:00,
2013-05-18 00:06:00,67.4,66.5,29.87,South,188,0.0,0.0,97,0.00,RA,,0.00,WeatherDisplay:10.37,2013-05-18 05:06:00,
2013-05-18 00:11:00,67.4,66.5,29.87,SSE,158,1.1,4.6,97,0.00,,,0.00,WeatherDisplay:10.37,2013-05-18 05:11:00,
2013-05-18 00:16:00,67.4,66.8,29.87,SW,226,0.4,4.6,98,0.00,,,0.00,WeatherDisplay:10.37,2013-05-18 05:16:00,
2013-05-18 00:21:00,67.4,66.8,29.87,SW,226,0.0,0.0,98,0.00,,,0.00,WeatherDisplay:10.37,2013-05-18 05:21:00,
2013-05-18 00:26:00,67.4,66.8,29.87,South,178,0.5,3.5,98,0.00,,,0.00,WeatherDisplay:10.37,2013-05-18 05:26:00,
2013-05-18 00:31:00,67.4,66.8,29.86,SSW,211,0.0,1.1,98,0.01,RA,,0.01,WeatherDisplay:10.37,2013-05-18 05:31:00,
2013-05-18 00:36:00,67.3,66.7,29.86,South,172,0.7,3.5,98,0.01,RA,,0.01,WeatherDisplay:10.37,2013-05-18 05:36:00,
2013-05-18 00:41:00,67.3,66.7,29.86,SW,216,0.0,1.0,98,0.01,,,0.01,WeatherDisplay:10.37,2013-05-18 05:41:00,
2013-05-18 00:46:00,67.3,66.7,29.86,SE,141,0.0,0.0,98,0.01,,,0.01,WeatherDisplay:10.37,2013-05-18 05:46:00,
2013-05-18 00:51:00,67.3,66.7,29.86,WSW,252,0.0,0.0,98,0.01,,,0.01,WeatherDisplay:10.37,2013-05-18 05:51:00,
2013-05-18 00:56:00,67.3,66.7,29.86,WSW,240,0.0,6.9,98,0.01,,,0.01,WeatherDisplay:10.37,2013-05-18 05:56:00,
2013-05-18 01:01:00,67.3,66.7,29.86,South,170,1.4,3.5,98,0.01,,,0.01,WeatherDisplay:10.37,2013-05-18 06:01:00,
2013-05-18 01:06:00,67.3,66.7,29.86,South,170,0.0,0.0,98,0.01,,,0.01,WeatherDisplay:10.37,2013-05-18 06:06:00,
2013-05-18 01:11:00,67.3,66.7,29.86,SSE,164,0.0,0.0,98,0.01,,,0.01,WeatherDisplay:10.37,2013-05-18 06:11:00,
2013-05-18 01:16:00,67.3,66.7,29.86,WSW,240,0.4,3.5,98,0.01,,,0.01,WeatherDisplay:10.37,2013-05-18 06:16:00,
2013-05-18 01:21:00,67.3,66.7,29.86,SW,229,0.5,3.5,98,0.01,,,0.01,WeatherDisplay:10.37,2013-05-18 06:21:00,
2013-05-18 01:26:00,67.1,66.5,29.86,SW,229,0.0,0.0,98,0.01,,,0.01,WeatherDisplay:10.37,2013-05-18 06:26:00,
2013-05-18 01:31:00,67.1,66.5,29.85,SW,232,0.0,0.0,98,0.00,,,0.01,WeatherDisplay:10.37,2013-05-18 06:31:00,
2013-05-18 01:36:00,67.1,66.5,29.85,SW,220,1.3,5.0,98,0.00,,,0.01,WeatherDisplay:10.37,2013-05-18 06:36:00,
2013-05-18 01:41:00,67.1,66.5,29.85,SW,225,0.0,1.1,98,0.00,,,0.01,WeatherDisplay:10.37,2013-05-18 06:41:00,
2013-05-18 01:46:00,67.1,66.5,29.84,SW,215,0.7,4.6,98,0.00,,,0.01,WeatherDisplay:10.37,2013-05-18 06:46:00,
2013-05-18 01:51:00,67.1,66.5,29.84,SSW,211,1.2,3.5,98,0.00,,,0.01,WeatherDisplay:10.37,2013-05-18 06:51:00,
2013-05-18 01:56:00,67.1,66.5,29.84,SSE,160,1.0,3.5,98,0.00,,,0.01,WeatherDisplay:10.37,2013-05-18 06:56:00,
2013-05-18 02:01:00,66.9,66.3,29.84,SSE,157,0.1,1.1,98,0.00,,,0.01,WeatherDisplay:10.37,2013-05-18 07:01:00,
2013-05-18 02:06:00,66.9,66.3,29.84,South,190,2.0,6.9,98,0.00,,,0.01,WeatherDisplay:10.37,2013-05-18 07:06:00,
2013-05-18 02:11:00,66.9,66.3,29.84,SW,229,1.2,3.5,98,0.00,,,0.01,WeatherDisplay:10.37,2013-05-18 07:11:00,
2013-05-18 02:16:00,66.9,66.3,29.83,SSW,207,4.6,11.5,98,0.00,,,0.01,WeatherDisplay:10.37,2013-05-18 07:16:00,
2013-05-18 02:21:00,66.9,66.3,29.83,SSW,193,3.3,9.2,98,0.00,,,0.01,WeatherDisplay:10.37,2013-05-18 07:21:00,
2013-05-18 02:26:00,67.1,66.5,29.83,WSW,252,3.6,6.9,98,0.00,,,0.01,WeatherDisplay:10.37,2013-05-18 07:26:00,
2013-05-18 02:31:00,67.1,66.5,29.84,West,264,3.1,6.9,98,0.00,,,0.01,WeatherDisplay:10.37,2013-05-18 07:31:00,
2013-05-18 02:36:00,67.1,66.5,29.84,South,185,2.0,4.6,98,0.00,,,0.01,WeatherDisplay:10.37,2013-05-18 07:36:00,
2013-05-18 02:41:00,67.1,66.5,29.84,SSE,163,2.2,5.8,98,0.00,,,0.01,WeatherDisplay:10.37,2013-05-18 07:41:00,
2013-05-18 02:46:00,67.3,66.7,29.84,SW,217,3.8,9.2,98,0.00,,,0.01,WeatherDisplay:10.37,2013-05-18 07:46:00,
2013-05-18 02:51:00,67.3,66.7,29.84,West,277,2.6,9.2,98,0.00,,,0.01,WeatherDisplay:10.37,2013-05-18 07:51:00,
2013-05-18 02:56:00,67.3,66.7,29.84,SSW,199,0.5,10.4,98,0.00,,,0.01,WeatherDisplay:10.37,2013-05-18 07:56:00,
2013-05-18 03:01:00,67.3,66.7,29.84,South,182,0.8,4.6,98,0.00,,,0.01,WeatherDisplay:10.37,2013-05-18 08:01:00,
2013-05-18 03:06:00,67.4,66.8,29.84,South,174,4.0,11.5,98,0.00,,,0.01,WeatherDisplay:10.37,2013-05-18 08:06:00,
2013-05-18 03:11:00,67.4,66.8,29.84,SW,215,4.4,10.4,98,0.00,,,0.01,WeatherDisplay:10.37,2013-05-18 08:11:00,
2013-05-18 03:16:00,67.4,66.8,29.84,WSW,238,4.3,8.1,98,0.00,,,0.01,WeatherDisplay:10.37,2013-05-18 08:16:00,
2013-05-18 03:21:00,67.4,66.8,29.84,SW,225,3.1,9.2,98,0.00,,,0.01,WeatherDisplay:10.37,2013-05-18 08:21:00,
2013-05-18 03:26:00,67.6,67.0,29.84,South,169,1.2,6.9,98,0.00,,,0.01,WeatherDisplay:10.37,2013-05-18 08:26:00,
2013-05-18 03:31:00,67.6,67.0,29.84,South,178,4.6,8.1,98,0.00,,,0.01,WeatherDisplay:10.37,2013-05-18 08:31:00,
2013-05-18 03:36:00,67.6,67.0,29.84,SSW,193,0.5,7.0,98,0.00,,,0.01,WeatherDisplay:10.37,2013-05-18 08:36:00,
2013-05-18 03:41:00,67.8,67.2,29.84,SW,215,0.5,3.5,98,0.00,,,0.01,WeatherDisplay:10.37,2013-05-18 08:41:00,
2013-05-18 03:46:00,67.8,67.2,29.86,SSE,150,5.0,8.1,98,0.00,,,0.01,WeatherDisplay:10.37,2013-05-18 08:46:00,
2013-05-18 03:51:00,67.8,67.2,29.86,SW,231,0.1,1.1,98,0.00,,,0.01,WeatherDisplay:10.37,2013-05-18 08:51:00,
2013-05-18 03:56:00,67.8,67.2,29.86,SW,223,0.9,4.6,98,0.00,,,0.01,WeatherDisplay:10.37,2013-05-18 08:56:00,
2013-05-18 04:01:00,67.8,67.2,29.86,SSE,153,0.1,5.8,98,0.00,,,0.01,WeatherDisplay:10.37,2013-05-18 09:01:00,
2013-05-18 04:06:00,67.8,67.2,29.86,SSW,198,0.2,1.1,98,0.00,,,0.01,WeatherDisplay:10.37,2013-05-18 09:06:00,
2013-05-18 04:11:00,67.8,67.2,29.86,SSW,198,0.0,1.1,98,0.00,,,0.01,WeatherDisplay:10.37,2013-05-18 09:11:00,
2013-05-18 04:16:00,67.8,67.2,29.87,SSW,198,0.5,3.5,98,0.00,,,0.01,WeatherDisplay:10.37,2013-05-18 09:16:00,
2013-05-18 04:21:00,67.8,67.2,29.87,SW,217,0.2,5.8,98,0.00,,,0.01,WeatherDisplay:10.37,2013-05-18 09:21:00,
2013-05-18 04:26:00,67.8,67.2,29.87,SSW,209,0.6,3.5,98,0.00,,,0.01,WeatherDisplay:10.37,2013-05-18 09:26:00,
2013-05-18 04:31:00,67.8,67.2,29.87,South,178,0.0,0.0,98,0.00,,,0.01,WeatherDisplay:10.37,2013-05-18 09:31:00,
2013-05-18 04:36:00,67.8,67.2,29.87,SSW,198,0.0,1.1,98,0.00,,,0.01,WeatherDisplay:10.37,2013-05-18 09:36:00,
2013-05-18 04:41:00,67.9,67.3,29.87,SSE,150,1.5,3.5,98,0.00,,,0.01,WeatherDisplay:10.37,2013-05-18 09:41:00,
2013-05-18 04:46:00,67.9,67.6,29.87,SSE,156,0.0,0.0,99,0.00,,,0.01,WeatherDisplay:10.37,2013-05-18 09:46:00,
2013-05-18 04:51:00,67.9,67.3,29.87,SW,224,0.0,1.1,98,0.01,RA,,0.02,WeatherDisplay:10.37,2013-05-18 09:51:00,
2013-05-18 04:56:00,67.9,67.3,29.87,WSW,242,1.1,3.5,98,0.01,RA,,0.02,WeatherDisplay:10.37,2013-05-18 09:56:00,
2013-05-18 05:01:00,67.9,67.3,29.86,SW,217,0.0,0.0,98,0.01,,,0.02,WeatherDisplay:10.37,2013-05-18 10:01:00,
2013-05-18 05:06:00,67.9,67.3,29.86,SW,217,0.0,0.0,98,0.01,,,0.02,WeatherDisplay:10.37,2013-05-18 10:06:00,
2013-05-18 05:11:00,67.9,67.3,29.86,SSW,213,0.0,0.0,98,0.01,,,0.02,WeatherDisplay:10.37,2013-05-18 10:11:00,
2013-05-18 05:16:00,67.9,67.3,29.87,WSW,248,3.5,6.9,98,0.01,,,0.02,WeatherDisplay:10.37,2013-05-18 10:16:00,
2013-05-18 05:21:00,67.9,67.6,29.87,SSW,209,0.0,1.1,99,0.01,,,0.02,WeatherDisplay:10.37,2013-05-18 10:21:00,
2013-05-18 05:26:00,67.9,67.6,29.87,SSE,165,0.1,3.5,99,0.01,,,0.02,WeatherDisplay:10.37,2013-05-18 10:26:00,
2013-05-18 05:31:00,67.9,67.6,29.89,SW,219,0.0,1.1,99,0.01,,,0.02,WeatherDisplay:10.37,2013-05-18 10:31:00,
2013-05-18 05:36:00,67.9,67.6,29.89,SW,231,0.0,3.5,99,0.01,,,0.02,WeatherDisplay:10.37,2013-05-18 10:36:00,
2013-05-18 05:41:00,67.9,67.6,29.89,SSE,168,1.3,3.5,99,0.01,,,0.02,WeatherDisplay:10.37,2013-05-18 10:41:00,
2013-05-18 05:46:00,67.9,67.6,29.89,SW,232,0.0,0.0,99,0.01,,,0.02,WeatherDisplay:10.37,2013-05-18 10:46:00,
2013-05-18 05:51:00,67.9,67.6,29.89,SE,136,1.7,4.6,99,0.00,,,0.02,WeatherDisplay:10.37,2013-05-18 10:51:00,
2013-05-18 05:56:00,67.9,67.6,29.89,SW,232,0.6,3.5,99,0.00,,,0.02,WeatherDisplay:10.37,2013-05-18 10:56:00,
2013-05-18 06:01:00,67.9,67.6,29.89,South,176,0.0,1.1,99,0.00,,,0.02,WeatherDisplay:10.37,2013-05-18 11:01:00,
2013-05-18 06:06:00,67.9,67.6,29.89,SW,234,0.0,0.0,99,0.00,,,0.02,WeatherDisplay:10.37,2013-05-18 11:06:00,
2013-05-18 06:11:00,67.9,67.6,29.89,SW,227,0.0,1.1,99,0.00,,,0.02,WeatherDisplay:10.37,2013-05-18 11:11:00,
2013-05-18 06:16:00,67.9,67.6,29.90,South,188,0.0,0.0,99,0.00,,,0.02,WeatherDisplay:10.37,2013-05-18 11:16:00,
2013-05-18 06:21:00,67.9,67.6,29.90,SE,145,1.4,3.5,99,0.00,,,0.02,WeatherDisplay:10.37,2013-05-18 11:21:00,
2013-05-18 06:26:00,67.9,67.6,29.90,SW,217,0.0,1.1,99,0.00,,,0.02,WeatherDisplay:10.37,2013-05-18 11:26:00,
2013-05-18 06:31:00,67.9,67.6,29.91,WSW,239,1.6,3.5,99,0.00,,,0.02,WeatherDisplay:10.37,2013-05-18 11:31:00,
2013-05-18 06:36:00,67.9,67.6,29.91,ESE,109,0.4,2.3,99,0.00,,,0.02,WeatherDisplay:10.37,2013-05-18 11:36:00,
2013-05-18 06:41:00,67.9,67.6,29.91,ESE,110,0.0,0.0,99,0.00,,,0.02,WeatherDisplay:10.37,2013-05-18 11:41:00,
2013-05-18 06:46:00,68.1,67.8,29.91,SW,217,0.0,1.1,99,0.00,,,0.02,WeatherDisplay:10.37,2013-05-18 11:46:00,
2013-05-18 06:51:00,68.1,67.8,29.91,SW,227,0.1,3.5,99,0.00,,,0.02,WeatherDisplay:10.37,2013-05-18 11:51:00,
2013-05-18 06:56:00,68.1,67.8,29.91,SW,215,0.1,1.1,99,0.00,,,0.02,WeatherDisplay:10.37,2013-05-18 11:56:00,
2013-05-18 07:01:00,68.1,67.8,29.91,SSE,147,0.2,1.1,99,0.00,,,0.02,WeatherDisplay:10.37,2013-05-18 12:01:00,
2013-05-18 07:06:00,68.1,67.8,29.91,SSE,147,0.0,0.0,99,0.00,,,0.02,WeatherDisplay:10.37,2013-05-18 12:06:00,
2013-05-18 07:11:00,68.1,67.8,29.91,SW,217,0.9,3.5,99,0.00,,,0.02,WeatherDisplay:10.37,2013-05-18 12:11:00,
2013-05-18 07:16:00,68.1,67.8,29.91,West,264,0.6,3.5,99,0.00,,,0.02,WeatherDisplay:10.37,2013-05-18 12:16:00,
2013-05-18 07:21:00,68.1,67.8,29.91,WSW,252,0.5,3.5,99,0.00,,,0.02,WeatherDisplay:10.37,2013-05-18 12:21:00,
2013-05-18 07:26:00,68.1,67.8,29.91,SSE,167,0.0,0.0,99,0.00,,,0.02,WeatherDisplay:10.37,2013-05-18 12:26:00,
2013-05-18 07:31:00,68.1,67.8,29.91,WSW,252,1.6,3.5,99,0.00,,,0.02,WeatherDisplay:10.37,2013-05-18 12:31:00,
2013-05-18 07:36:00,68.1,67.8,29.91,South,173,0.0,3.5,99,0.01,RA,,0.03,WeatherDisplay:10.37,2013-05-18 12:36:00,
2013-05-18 07:41:00,68.3,68.0,29.91,SW,230,0.0,0.0,99,0.01,RA,,0.03,WeatherDisplay:10.37,2013-05-18 12:41:00,
2013-05-18 07:46:00,68.3,68.0,29.92,WSW,243,1.7,3.5,99,0.01,,,0.03,WeatherDisplay:10.37,2013-05-18 12:46:00,
2013-05-18 07:51:00,68.3,68.0,29.92,WSW,247,0.0,1.1,99,0.01,,,0.03,WeatherDisplay:10.37,2013-05-18 12:51:00,
2013-05-18 07:56:00,68.3,68.0,29.92,SSE,157,0.6,3.5,99,0.01,,,0.03,WeatherDisplay:10.37,2013-05-18 12:56:00,
2013-05-18 08:01:00,68.3,68.0,29.92,SW,234,0.0,0.0,99,0.01,,,0.03,WeatherDisplay:10.37,2013-05-18 13:01:00,
2013-05-18 08:06:00,68.4,68.1,29.92,West,260,0.8,5.8,99,0.01,,,0.03,WeatherDisplay:10.37,2013-05-18 13:06:00,
2013-05-18 08:11:00,68.4,68.1,29.92,South,175,0.0,1.1,99,0.01,,,0.03,WeatherDisplay:10.37,2013-05-18 13:11:00,
2013-05-18 08:16:00,68.6,68.3,29.92,SW,214,0.0,1.1,99,0.01,,,0.03,WeatherDisplay:10.37,2013-05-18 13:16:00,
2013-05-18 08:21:00,68.8,68.5,29.92,SW,229,1.0,3.5,99,0.01,,,0.03,WeatherDisplay:10.37,2013-05-18 13:21:00,
2013-05-18 08:26:00,68.8,68.5,29.92,SW,230,0.9,5.8,99,0.01,,,0.03,WeatherDisplay:10.37,2013-05-18 13:26:00,
2013-05-18 08:31:00,68.8,68.5,29.92,SSW,200,0.0,1.1,99,0.01,,,0.03,WeatherDisplay:10.37,2013-05-18 13:31:00,
2013-05-18 08:36:00,68.8,68.5,29.92,SSW,205,0.7,3.5,99,0.00,,,0.03,WeatherDisplay:10.37,2013-05-18 13:36:00,
2013-05-18 08:41:00,68.9,68.6,29.92,SSW,205,0.0,0.0,99,0.00,,,0.03,WeatherDisplay:10.37,2013-05-18 13:41:00,
2013-05-18 08:46:00,68.9,68.6,29.92,SSE,159,0.9,6.9,99,0.00,,,0.03,WeatherDisplay:10.37,2013-05-18 13:46:00,
2013-05-18 08:51:00,68.8,68.5,29.92,SW,229,0.0,0.0,99,0.00,,,0.03,WeatherDisplay:10.37,2013-05-18 13:51:00,
2013-05-18 08:56:00,68.9,68.6,29.92,SSW,198,0.9,4.6,99,0.00,,,0.03,WeatherDisplay:10.37,2013-05-18 13:56:00,
2013-05-18 09:01:00,68.9,68.6,29.92,WSW,248,1.8,4.6,99,0.00,,,0.03,WeatherDisplay:10.37,2013-05-18 14:01:00,
2013-05-18 09:06:00,68.9,68.6,29.92,SSW,212,0.9,3.5,99,0.00,,,0.03,WeatherDisplay:10.37,2013-05-18 14:06:00,
2013-05-18 09:11:00,69.1,68.8,29.92,WSW,240,0.0,2.0,99,0.00,,,0.03,WeatherDisplay:10.37,2013-05-18 14:11:00,
2013-05-18 09:16:00,69.1,68.8,29.92,South,184,0.5,3.5,99,0.00,,,0.03,WeatherDisplay:10.37,2013-05-18 14:16:00,
2013-05-18 09:21:00,69.1,68.8,29.92,WSW,247,0.8,3.5,99,0.00,,,0.03,WeatherDisplay:10.37,2013-05-18 14:21:00,
2013-05-18 09:26:00,69.1,68.8,29.92,SSW,196,0.0,1.1,99,0.00,,,0.03,WeatherDisplay:10.37,2013-05-18 14:26:00,
2013-05-18 09:31:00,69.1,68.8,29.93,SW,228,3.1,5.8,99,0.00,,,0.03,WeatherDisplay:10.37,2013-05-18 14:31:00,
2013-05-18 09:36:00,69.1,68.8,29.93,SW,221,0.0,1.1,99,0.00,,,0.03,WeatherDisplay:10.37,2013-05-18 14:36:00,
2013-05-18 09:41:00,69.3,69.0,29.93,South,190,3.8,10.4,99,0.00,,,0.03,WeatherDisplay:10.37,2013-05-18 14:41:00,
2013-05-18 09:46:00,69.3,69.0,29.93,SW,233,0.5,3.5,99,0.00,,,0.03,WeatherDisplay:10.37,2013-05-18 14:46:00,
2013-05-18 09:51:00,69.3,69.0,29.93,SW,222,0.3,2.3,99,0.00,,,0.03,WeatherDisplay:10.37,2013-05-18 14:51:00,
2013-05-18 09:56:00,69.4,69.1,29.93,SW,222,0.6,3.5,99,0.00,,,0.03,WeatherDisplay:10.37,2013-05-18 14:56:00,
2013-05-18 10:01:00,69.6,69.3,29.93,SW,224,0.6,3.5,99,0.00,,,0.03,WeatherDisplay:10.37,2013-05-18 15:01:00,
2013-05-18 10:06:00,69.6,69.3,29.93,South,174,0.8,3.5,99,0.00,,,0.03,WeatherDisplay:10.37,2013-05-18 15:06:00,
2013-05-18 10:11:00,69.9,69.6,29.93,SSW,197,1.1,3.5,99,0.00,,,0.03,WeatherDisplay:10.37,2013-05-18 15:11:00,
2013-05-18 10:16:00,70.4,70.1,29.93,WSW,254,0.3,4.0,99,0.00,,,0.03,WeatherDisplay:10.37,2013-05-18 15:16:00,
2013-05-18 10:21:00,70.9,70.6,29.93,South,191,0.8,2.3,99,0.00,,,0.03,WeatherDisplay:10.37,2013-05-18 15:21:00,
2013-05-18 10:26:00,71.6,71.3,29.93,ESE,119,0.1,1.1,99,0.00,,,0.03,WeatherDisplay:10.37,2013-05-18 15:26:00,
2013-05-18 10:31:00,71.6,71.3,29.93,SW,224,0.0,0.0,99,0.00,,,0.03,WeatherDisplay:10.37,2013-05-18 15:31:00,
2013-05-18 10:36:00,71.8,71.5,29.93,SW,218,0.0,0.0,99,0.00,,,0.03,WeatherDisplay:10.37,2013-05-18 15:36:00,
2013-05-18 10:41:00,72.0,71.7,29.93,SE,144,0.1,1.1,99,0.00,,,0.03,WeatherDisplay:10.37,2013-05-18 15:41:00,
2013-05-18 10:46:00,72.0,71.4,29.94,WSW,251,2.4,5.8,98,0.00,,,0.03,WeatherDisplay:10.37,2013-05-18 15:46:00,
2013-05-18 10:51:00,72.1,71.5,29.94,West,277,0.1,3.5,98,0.00,,,0.03,WeatherDisplay:10.37,2013-05-18 15:51:00,
2013-05-18 10:56:00,72.5,71.9,29.94,SSW,209,0.1,1.1,98,0.00,,,0.03,WeatherDisplay:10.37,2013-05-18 15:56:00,
2013-05-18 11:01:00,72.3,71.7,29.94,SSW,207,1.4,5.8,98,0.00,,,0.03,WeatherDisplay:10.37,2013-05-18 16:01:00,
2013-05-18 11:06:00,72.1,71.2,29.94,South,187,0.0,4.6,97,0.00,,,0.03,WeatherDisplay:10.37,2013-05-18 16:06:00,
2013-05-18 11:11:00,72.1,71.2,29.94,SE,136,1.1,5.8,97,0.00,,,0.03,WeatherDisplay:10.37,2013-05-18 16:11:00,
2013-05-18 11:16:00,72.7,71.8,29.94,SSW,213,0.0,1.1,97,0.00,,,0.03,WeatherDisplay:10.37,2013-05-18 16:16:00,
2013-05-18 11:21:00,73.2,72.0,29.94,SW,232,0.5,3.5,96,0.00,,,0.03,WeatherDisplay:10.37,2013-05-18 16:21:00,
2013-05-18 11:26:00,73.5,71.7,29.94,ESE,114,0.3,4.6,94,0.00,,,0.03,WeatherDisplay:10.37,2013-05-18 16:26:00,
2013-05-18 11:31:00,74.4,72.6,29.94,South,174,0.0,0.0,94,0.00,,,0.03,WeatherDisplay:10.37,2013-05-18 16:31:00,
2013-05-18 11:36:00,74.7,71.9,29.94,SSW,207,0.4,3.5,91,0.00,,,0.03,WeatherDisplay:10.37,2013-05-18 16:36:00,
2013-05-18 11:41:00,74.7,70.9,29.94,SSW,208,0.4,3.5,88,0.00,,,0.03,WeatherDisplay:10.37,2013-05-18 16:41:00,
2013-05-18 11:46:00,75.3,70.8,29.93,SW,225,1.2,4.6,86,0.00,,,0.03,WeatherDisplay:10.37,2013-05-18 16:46:00,
2013-05-18 11:51:00,75.4,71.3,29.93,SW,235,0.0,0.0,87,0.00,,,0.03,WeatherDisplay:10.37,2013-05-18 16:51:00,
2013-05-18 11:56:00,75.6,71.1,29.93,WSW,242,0.3,2.3,86,0.00,,,0.03,WeatherDisplay:10.37,2013-05-18 16:56:00,
2013-05-18 12:01:00,75.6,70.8,29.93,South,190,0.0,0.0,85,0.00,,,0.03,WeatherDisplay:10.37,2013-05-18 17:01:00,
2013-05-18 12:06:00,75.8,71.0,29.93,South,191,0.8,3.5,85,0.00,,,0.03,WeatherDisplay:10.37,2013-05-18 17:06:00,
2013-05-18 12:11:00,75.6,70.4,29.93,WNW,282,1.3,5.8,84,0.00,,,0.03,WeatherDisplay:10.37,2013-05-18 17:11:00,
2013-05-18 12:16:00,75.8,70.6,29.93,SW,224,1.0,3.5,84,0.00,,,0.03,WeatherDisplay:10.37,2013-05-18 17:16:00,
2013-05-18 12:21:00,76.0,70.8,29.93,East,82,0.1,1.1,84,0.00,,,0.03,WeatherDisplay:10.37,2013-05-18 17:21:00,
2013-05-18 12:26:00,76.1,70.6,29.93,West,274,0.6,3.5,83,0.00,,,0.03,WeatherDisplay:10.37,2013-05-18 17:26:00,
2013-05-18 12:31:00,76.1,70.2,29.93,SSW,209,1.2,3.5,82,0.00,,,0.03,WeatherDisplay:10.37,2013-05-18 17:31:00,
2013-05-18 12:36:00,76.3,70.0,29.93,SSW,209,1.9,5.8,81,0.00,,,0.03,WeatherDisplay:10.37,2013-05-18 17:36:00,
2013-05-18 12:41:00,76.7,70.4,29.93,SW,232,0.1,1.1,81,0.00,,,0.03,WeatherDisplay:10.37,2013-05-18 17:41:00,
2013-05-18 12:46:00,76.8,70.5,29.92,SE,133,0.0,1.1,81,0.00,,,0.03,WeatherDisplay:10.37,2013-05-18 17:46:00,
2013-05-18 12:51:00,77.2,69.8,29.92,SSW,209,0.1,6.9,78,0.00,,,0.03,WeatherDisplay:10.37,2013-05-18 17:51:00,
2013-05-18 12:56:00,77.4,70.0,29.92,WSW,241,0.2,2.3,78,0.00,,,0.03,WeatherDisplay:10.37,2013-05-18 17:56:00,
2013-05-18 13:01:00,77.6,70.2,29.92,SW,223,1.2,3.5,78,0.00,,,0.03,WeatherDisplay:10.37,2013-05-18 18:01:00,
2013-05-18 13:06:00,78.1,71.4,29.92,SW,224,0.0,1.1,80,0.00,,,0.03,WeatherDisplay:10.37,2013-05-18 18:06:00,
2013-05-18 13:11:00,78.3,69.3,29.92,SW,219,1.5,3.5,74,0.00,,,0.03,WeatherDisplay:10.37,2013-05-18 18:11:00,
2013-05-18 13:16:00,78.1,69.1,29.92,WSW,254,2.3,5.0,74,0.00,,,0.03,WeatherDisplay:10.37,2013-05-18 18:16:00,
2013-05-18 13:21:00,78.1,70.7,29.92,SE,138,0.4,2.3,78,0.00,,,0.03,WeatherDisplay:10.37,2013-05-18 18:21:00,
2013-05-18 13:26:00,78.6,70.0,29.92,SW,236,1.2,3.5,75,0.00,,,0.03,WeatherDisplay:10.37,2013-05-18 18:26:00,
2013-05-18 13:31:00,78.6,69.6,29.91,South,189,0.0,1.1,74,0.00,,,0.03,WeatherDisplay:10.37,2013-05-18 18:31:00,
2013-05-18 13:36:00,79.0,70.8,29.91,SW,215,0.0,0.0,76,0.00,,,0.03,WeatherDisplay:10.37,2013-05-18 18:36:00,
2013-05-18 13:41:00,79.8,70.8,29.91,ESE,116,0.2,2.3,74,0.00,,,0.03,WeatherDisplay:10.37,2013-05-18 18:41:00,
2013-05-18 13:46:00,80.5,71.0,29.90,ESE,111,0.0,0.0,73,0.00,,,0.03,WeatherDisplay:10.37,2013-05-18 18:46:00,
2013-05-18 13:51:00,80.9,69.3,29.90,ENE,74,0.1,2.3,68,0.00,,,0.03,WeatherDisplay:10.37,2013-05-18 18:51:00,
2013-05-18 13:56:00,80.7,70.4,29.90,ENE,78,0.0,1.1,71,0.00,,,0.03,WeatherDisplay:10.37,2013-05-18 18:56:00,
2013-05-18 14:01:00,80.9,71.4,29.90,SW,226,0.2,2.3,73,0.00,,,0.03,WeatherDisplay:10.37,2013-05-18 19:01:00,
2013-05-18 14:06:00,81.2,69.6,29.90,South,180,0.7,3.5,68,0.00,,,0.03,WeatherDisplay:10.37,2013-05-18 19:06:00,
2013-05-18 14:11:00,81.4,69.4,29.90,West,266,1.3,5.0,67,0.00,,,0.03,WeatherDisplay:10.37,2013-05-18 19:11:00,
2013-05-18 14:16:00,81.6,71.7,29.90,South,186,0.0,0.0,72,0.00,,,0.03,WeatherDisplay:10.37,2013-05-18 19:16:00,
2013-05-18 14:21:00,81.8,69.8,29.90,SW,219,2.8,10.4,67,0.00,,,0.03,WeatherDisplay:10.37,2013-05-18 19:21:00,
2013-05-18 14:26:00,81.8,69.3,29.90,South,189,0.2,5.8,66,0.00,,,0.03,WeatherDisplay:10.37,2013-05-18 19:26:00,
2013-05-18 14:31:00,82.0,69.1,29.89,SW,216,0.0,1.1,65,0.00,,,0.03,WeatherDisplay:10.37,2013-05-18 19:31:00,
2013-05-18 14:36:00,82.0,70.4,29.89,South,169,0.2,2.0,68,0.00,,,0.03,WeatherDisplay:10.37,2013-05-18 19:36:00,
2013-05-18 14:41:00,81.2,69.2,29.89,South,180,0.0,2.3,67,0.00,,,0.03,WeatherDisplay:10.37,2013-05-18 19:41:00,
2013-05-18 14:46:00,80.9,68.9,29.89,SSE,156,0.0,4.6,67,0.00,,,0.03,WeatherDisplay:10.37,2013-05-18 19:46:00,
2013-05-18 14:51:00,80.9,68.9,29.89,WNW,298,3.2,5.8,67,0.00,,,0.03,WeatherDisplay:10.37,2013-05-18 19:51:00,
2013-05-18 14:56:00,81.2,69.2,29.89,WSW,247,0.4,3.5,67,0.00,,,0.03,WeatherDisplay:10.37,2013-05-18 19:56:00,
2013-05-18 15:01:00,81.6,68.7,29.89,SSW,213,1.3,5.8,65,0.00,,,0.03,WeatherDisplay:10.37,2013-05-18 20:01:00,
2013-05-18 15:06:00,81.4,69.8,29.89,SW,218,0.0,1.1,68,0.00,,,0.03,WeatherDisplay:10.37,2013-05-18 20:06:00,
2013-05-18 15:11:00,81.6,70.0,29.89,SSW,196,0.1,1.1,68,0.00,,,0.03,WeatherDisplay:10.37,2013-05-18 20:11:00,
2013-05-18 15:16:00,81.4,68.9,29.89,SW,236,0.1,3.5,66,0.00,,,0.03,WeatherDisplay:10.37,2013-05-18 20:16:00,
2013-05-18 15:21:00,81.2,68.8,29.89,SW,218,0.0,0.0,66,0.00,,,0.03,WeatherDisplay:10.37,2013-05-18 20:21:00,
2013-05-18 15:26:00,81.4,69.8,29.89,South,178,1.7,3.5,68,0.00,,,0.03,WeatherDisplay:10.37,2013-05-18 20:26:00,
2013-05-18 15:31:00,81.6,70.0,29.88,SSE,157,0.0,2.0,68,0.00,,,0.03,WeatherDisplay:10.37,2013-05-18 20:31:00,
2013-05-18 15:36:00,81.6,70.0,29.88,SSW,205,0.6,2.3,68,0.00,,,0.03,WeatherDisplay:10.37,2013-05-18 20:36:00,
2013-05-18 15:41:00,81.2,69.6,29.88,SW,221,0.5,3.5,68,0.00,,,0.03,WeatherDisplay:10.37,2013-05-18 20:41:00,
2013-05-18 15:46:00,81.1,69.5,29.88,WSW,237,0.7,3.5,68,0.00,,,0.03,WeatherDisplay:10.37,2013-05-18 20:46:00,
2013-05-18 15:51:00,80.9,69.3,29.88,SW,223,0.0,0.0,68,0.00,,,0.03,WeatherDisplay:10.37,2013-05-18 20:51:00,
2013-05-18 15:56:00,80.7,69.6,29.88,SSW,192,1.0,3.5,69,0.00,,,0.03,WeatherDisplay:10.37,2013-05-18 20:56:00,
2013-05-18 16:01:00,80.3,69.6,29.88,SW,230,0.6,5.8,70,0.00,,,0.03,WeatherDisplay:10.37,2013-05-18 21:01:00,
2013-05-18 16:06:00,80.1,69.8,29.88,SSW,197,0.2,2.3,71,0.00,,,0.03,WeatherDisplay:10.37,2013-05-18 21:06:00,
2013-05-18 16:11:00,79.9,69.7,29.88,SSE,153,1.3,5.8,71,0.00,,,0.03,WeatherDisplay:10.37,2013-05-18 21:11:00,
2013-05-18 16:16:00,80.3,70.0,29.87,WSW,249,0.0,0.0,71,0.00,,,0.03,WeatherDisplay:10.37,2013-05-18 21:16:00,
2013-05-18 16:21:00,80.5,69.0,29.87,SW,228,4.8,8.1,68,0.00,,,0.03,WeatherDisplay:10.37,2013-05-18 21:21:00,
2013-05-18 16:26:00,80.7,69.2,29.87,SSW,198,2.0,3.5,68,0.00,,,0.03,WeatherDisplay:10.37,2013-05-18 21:26:00,
2013-05-18 16:31:00,81.1,70.0,29.87,SSW,212,1.8,4.6,69,0.00,,,0.03,WeatherDisplay:10.37,2013-05-18 21:31:00,
2013-05-18 16:36:00,80.9,69.3,29.87,SW,223,0.5,2.3,68,0.00,,,0.03,WeatherDisplay:10.37,2013-05-18 21:36:00,
2013-05-18 16:41:00,80.7,68.7,29.87,WSW,242,1.1,4.6,67,0.00,,,0.03,WeatherDisplay:10.37,2013-05-18 21:41:00,
2013-05-18 16:46:00,80.3,68.3,29.87,WSW,250,0.8,5.8,67,0.00,,,0.03,WeatherDisplay:10.37,2013-05-18 21:46:00,
2013-05-18 16:51:00,80.1,68.2,29.87,SW,221,3.1,5.8,67,0.00,,,0.03,WeatherDisplay:10.37,2013-05-18 21:51:00,
2013-05-18 16:56:00,80.1,68.2,29.87,South,177,1.5,3.5,67,0.00,,,0.03,WeatherDisplay:10.37,2013-05-18 21:56:00,
2013-05-18 17:01:00,80.3,69.2,29.87,South,188,0.6,2.3,69,0.00,,,0.03,WeatherDisplay:10.37,2013-05-18 22:01:00,
2013-05-18 17:06:00,80.3,69.6,29.87,SW,215,0.0,0.0,70,0.00,,,0.03,WeatherDisplay:10.37,2013-05-18 22:06:00,
2013-05-18 17:11:00,80.5,69.0,29.87,SE,146,1.5,3.5,68,0.00,,,0.03,WeatherDisplay:10.37,2013-05-18 22:11:00,
2013-05-18 17:16:00,80.5,68.5,29.87,SSE,157,2.9,5.8,67,0.00,,,0.03,WeatherDisplay:10.37,2013-05-18 22:16:00,
2013-05-18 17:21:00,80.1,68.6,29.87,SE,127,2.4,4.6,68,0.00,,,0.03,WeatherDisplay:10.37,2013-05-18 22:21:00,
2013-05-18 17:26:00,79.9,68.8,29.87,SW,229,0.5,4.6,69,0.00,,,0.03,WeatherDisplay:10.37,2013-05-18 22:26:00,
2013-05-18 17:31:00,80.1,69.8,29.87,SW,229,0.0,0.0,71,0.00,,,0.03,WeatherDisplay:10.37,2013-05-18 22:31:00,
2013-05-18 17:36:00,80.3,70.0,29.87,SW,229,0.0,0.0,71,0.00,,,0.03,WeatherDisplay:10.37,2013-05-18 22:36:00,
2013-05-18 17:41:00,80.3,69.6,29.87,South,171,0.2,6.9,70,0.00,,,0.03,WeatherDisplay:10.37,2013-05-18 22:41:00,
2013-05-18 17:46:00,80.1,69.4,29.87,WSW,239,1.4,3.5,70,0.00,,,0.03,WeatherDisplay:10.37,2013-05-18 22:46:00,
2013-05-18 17:51:00,79.8,69.1,29.87,SW,230,0.6,4.6,70,0.00,,,0.03,WeatherDisplay:10.37,2013-05-18 22:51:00,
2013-05-18 17:56:00,79.4,69.2,29.87,SW,230,0.0,0.0,71,0.00,,,0.03,WeatherDisplay:10.37,2013-05-18 22:56:00,
2013-05-18 18:01:00,79.0,69.2,29.87,WSW,244,2.1,4.6,72,0.00,,,0.03,WeatherDisplay:10.37,2013-05-18 23:01:00,
2013-05-18 18:06:00,78.6,69.6,29.87,SSW,202,0.0,0.0,74,0.00,,,0.03,WeatherDisplay:10.37,2013-05-18 23:06:00,
2013-05-18 18:11:00,78.5,69.9,29.87,SSW,202,0.1,1.1,75,0.00,,,0.03,WeatherDisplay:10.37,2013-05-18 23:11:00,
2013-05-18 18:16:00,78.3,70.5,29.87,SSW,202,0.0,0.0,77,0.00,,,0.03,WeatherDisplay:10.37,2013-05-18 23:16:00,
2013-05-18 18:21:00,78.3,70.5,29.87,SSW,202,0.0,1.1,77,0.00,,,0.03,WeatherDisplay:10.37,2013-05-18 23:21:00,
2013-05-18 18:26:00,77.9,70.1,29.87,SSW,202,0.1,1.1,77,0.00,,,0.03,WeatherDisplay:10.37,2013-05-18 23:26:00,
2013-05-18 18:31:00,77.7,70.3,29.87,SSW,202,0.0,0.0,78,0.00,,,0.03,WeatherDisplay:10.37,2013-05-18 23:31:00,
2013-05-18 18:36:00,77.7,70.7,29.87,SSW,202,0.0,0.0,79,0.00,,,0.03,WeatherDisplay:10.37,2013-05-18 23:36:00,
2013-05-18 18:41:00,77.6,70.6,29.87,SSW,202,0.0,0.0,79,0.00,,,0.03,WeatherDisplay:10.37,2013-05-18 23:41:00,
2013-05-18 18:46:00,77.4,70.7,29.87,SSW,202,0.0,0.0,80,0.00,,,0.03,WeatherDisplay:10.37,2013-05-18 23:46:00,
2013-05-18 18:51:00,77.4,70.7,29.87,SSW,202,0.0,2.0,80,0.00,,,0.03,WeatherDisplay:10.37,2013-05-18 23:51:00,
2013-05-18 18:56:00,77.4,70.7,29.87,SSW,196,0.1,1.1,80,0.00,,,0.03,WeatherDisplay:10.37,2013-05-18 23:56:00,
2013-05-18 19:01:00,77.2,70.5,29.87,SSW,196,0.0,0.0,80,0.00,,,0.03,WeatherDisplay:10.37,2013-05-19 00:01:00,
2013-05-18 19:06:00,77.0,70.7,29.87,SSW,196,0.0,0.0,81,0.00,,,0.03,WeatherDisplay:10.37,2013-05-19 00:06:00,
2013-05-18 19:11:00,77.0,70.7,29.87,SSW,196,0.0,1.1,81,0.00,,,0.03,WeatherDisplay:10.37,2013-05-19 00:11:00,
2013-05-18 19:16:00,76.8,70.5,29.87,SSW,196,0.0,0.0,81,0.00,,,0.03,WeatherDisplay:10.37,2013-05-19 00:16:00,
2013-05-18 19:21:00,76.5,70.6,29.87,SSW,196,0.0,0.0,82,0.00,,,0.03,WeatherDisplay:10.37,2013-05-19 00:21:00,
2013-05-18 19:26:00,76.1,70.6,29.87,SSW,196,0.0,0.0,83,0.00,,,0.03,WeatherDisplay:10.37,2013-05-19 00:26:00,
2013-05-18 19:31:00,75.8,70.3,29.87,SSW,196,0.0,0.0,83,0.00,,,0.03,WeatherDisplay:10.37,2013-05-19 00:31:00,
2013-05-18 19:36:00,75.6,70.4,29.87,SSW,196,0.0,0.0,84,0.00,,,0.03,WeatherDisplay:10.37,2013-05-19 00:36:00,
2013-05-18 19:41:00,75.3,70.1,29.87,SSW,196,0.0,0.0,84,0.00,,,0.03,WeatherDisplay:10.37,2013-05-19 00:41:00,
2013-05-18 19:46:00,74.9,70.1,29.88,SSW,196,0.0,0.0,85,0.00,,,0.03,WeatherDisplay:10.37,2013-05-19 00:46:00,
2013-05-18 19:51:00,74.6,70.1,29.88,SSW,196,0.0,0.0,86,0.00,,,0.03,WeatherDisplay:10.37,2013-05-19 00:51:00,
2013-05-18 19:56:00,74.2,70.1,29.88,SSW,196,0.0,0.0,87,0.00,,,0.03,WeatherDisplay:10.37,2013-05-19 00:56:00,
2013-05-18 20:01:00,74.0,69.9,29.88,SSW,196,0.0,0.0,87,0.00,,,0.03,WeatherDisplay:10.37,2013-05-19 01:01:00,
2013-05-18 20:06:00,73.7,69.9,29.88,SSW,196,0.0,0.0,88,0.00,,,0.03,WeatherDisplay:10.37,2013-05-19 01:06:00,
2013-05-18 20:11:00,73.3,69.5,29.88,SSW,196,0.0,0.0,88,0.00,,,0.03,WeatherDisplay:10.37,2013-05-19 01:11:00,
2013-05-18 20:16:00,73.2,69.8,29.88,SSW,196,0.0,0.0,89,0.00,,,0.03,WeatherDisplay:10.37,2013-05-19 01:16:00,
2013-05-18 20:21:00,73.0,69.6,29.88,SSW,196,0.0,0.0,89,0.00,,,0.03,WeatherDisplay:10.37,2013-05-19 01:21:00,
2013-05-18 20:26:00,72.8,69.4,29.88,WSW,255,0.0,0.0,89,0.00,,,0.03,WeatherDisplay:10.37,2013-05-19 01:26:00,
2013-05-18 20:31:00,72.8,69.7,29.88,WSW,255,0.0,0.0,90,0.00,,,0.03,WeatherDisplay:10.37,2013-05-19 01:31:00,
2013-05-18 20:36:00,72.7,69.6,29.88,WSW,255,0.0,0.0,90,0.00,,,0.03,WeatherDisplay:10.37,2013-05-19 01:36:00,
2013-05-18 20:41:00,72.5,69.4,29.88,WSW,255,0.0,0.0,90,0.00,,,0.03,WeatherDisplay:10.37,2013-05-19 01:41:00,
2013-05-18 20:46:00,72.3,69.5,29.88,WSW,255,0.0,0.0,91,0.00,,,0.03,WeatherDisplay:10.37,2013-05-19 01:46:00,
2013-05-18 20:51:00,72.1,69.3,29.88,WSW,255,0.0,0.0,91,0.00,,,0.03,WeatherDisplay:10.37,2013-05-19 01:51:00,
2013-05-18 20:56:00,72.1,69.3,29.88,WSW,255,0.0,1.1,91,0.00,,,0.03,WeatherDisplay:10.37,2013-05-19 01:56:00,
2013-05-18 21:01:00,72.1,69.6,29.88,WSW,255,0.0,0.0,92,0.00,,,0.03,WeatherDisplay:10.37,2013-05-19 02:01:00,
2013-05-18 21:06:00,72.0,69.5,29.88,WSW,255,0.0,0.0,92,0.00,,,0.03,WeatherDisplay:10.37,2013-05-19 02:06:00,
2013-05-18 21:11:00,72.0,69.5,29.88,WSW,255,0.0,0.0,92,0.00,,,0.03,WeatherDisplay:10.37,2013-05-19 02:11:00,
2013-05-18 21:16:00,71.8,69.3,29.88,WSW,255,0.0,0.0,92,0.00,,,0.03,WeatherDisplay:10.37,2013-05-19 02:16:00,
2013-05-18 21:21:00,71.8,69.3,29.88,WSW,255,0.0,0.0,92,0.00,,,0.03,WeatherDisplay:10.37,2013-05-19 02:21:00,
2013-05-18 21:26:00,71.6,69.2,29.88,WSW,255,0.0,0.0,92,0.00,,,0.03,WeatherDisplay:10.37,2013-05-19 02:26:00,
2013-05-18 21:31:00,71.6,69.5,29.88,WSW,255,0.0,0.0,93,0.00,,,0.03,WeatherDisplay:10.37,2013-05-19 02:31:00,
2013-05-18 21:36:00,71.5,69.4,29.88,WSW,255,0.0,0.0,93,0.00,,,0.03,WeatherDisplay:10.37,2013-05-19 02:36:00,
2013-05-18 21:41:00,71.5,69.4,29.88,WSW,255,0.0,0.0,93,0.00,,,0.03,WeatherDisplay:10.37,2013-05-19 02:41:00,
2013-05-18 21:46:00,71.3,69.2,29.89,WSW,255,0.0,0.0,93,0.00,,,0.03,WeatherDisplay:10.37,2013-05-19 02:46:00,
2013-05-18 21:51:00,71.3,69.2,29.89,WSW,255,0.0,0.0,93,0.00,,,0.03,WeatherDisplay:10.37,2013-05-19 02:51:00,
2013-05-18 21:56:00,71.3,69.5,29.89,WSW,255,0.0,0.0,94,0.00,,,0.03,WeatherDisplay:10.37,2013-05-19 02:56:00,
2013-05-18 22:01:00,71.1,69.3,29.88,WSW,255,0.0,0.0,94,0.00,,,0.03,WeatherDisplay:10.37,2013-05-19 03:01:00,
2013-05-18 22:06:00,71.1,69.3,29.88,WSW,255,0.0,0.0,94,0.00,,,0.03,WeatherDisplay:10.37,2013-05-19 03:06:00,
2013-05-18 22:11:00,70.9,69.1,29.88,WSW,255,0.0,0.0,94,0.00,,,0.03,WeatherDisplay:10.37,2013-05-19 03:11:00,
2013-05-18 22:16:00,70.8,69.0,29.89,WSW,255,0.0,0.0,94,0.00,,,0.03,WeatherDisplay:10.37,2013-05-19 03:16:00,
2013-05-18 22:21:00,70.8,69.0,29.89,WSW,255,0.0,0.0,94,0.00,,,0.03,WeatherDisplay:10.37,2013-05-19 03:21:00,
2013-05-18 22:26:00,70.8,69.0,29.89,WSW,255,0.0,0.0,94,0.00,,,0.03,WeatherDisplay:10.37,2013-05-19 03:26:00,
2013-05-18 22:31:00,70.8,69.0,29.89,WSW,255,0.0,0.0,94,0.00,,,0.03,WeatherDisplay:10.37,2013-05-19 03:31:00,
2013-05-18 22:36:00,70.6,69.1,29.89,WSW,255,0.0,0.0,95,0.00,,,0.03,WeatherDisplay:10.37,2013-05-19 03:36:00,
2013-05-18 22:41:00,70.8,69.3,29.89,WSW,255,0.0,0.0,95,0.00,,,0.03,WeatherDisplay:10.37,2013-05-19 03:41:00,
2013-05-18 22:46:00,70.9,69.4,29.88,WSW,255,0.0,0.0,95,0.00,,,0.03,WeatherDisplay:10.37,2013-05-19 03:46:00,
2013-05-18 22:51:00,70.9,69.4,29.88,WSW,255,0.0,0.0,95,0.00,,,0.03,WeatherDisplay:10.37,2013-05-19 03:51:00,
2013-05-18 22:56:00,70.9,69.4,29.88,WSW,255,0.0,0.0,95,0.00,,,0.03,WeatherDisplay:10.37,2013-05-19 03:56:00,
2013-05-18 23:01:00,70.9,69.4,29.88,WSW,255,0.0,0.0,95,0.00,,,0.03,WeatherDisplay:10.37,2013-05-19 04:01:00,
2013-05-18 23:06:00,70.8,69.3,29.88,WSW,255,0.0,0.0,95,0.00,,,0.03,WeatherDisplay:10.37,2013-05-19 04:06:00,
2013-05-18 23:11:00,70.8,69.3,29.88,WSW,255,0.0,0.0,95,0.00,,,0.03,WeatherDisplay:10.37,2013-05-19 04:11:00,
2013-05-18 23:16:00,70.8,69.6,29.88,WSW,255,0.0,0.0,96,0.00,,,0.03,WeatherDisplay:10.37,2013-05-19 04:16:00,
2013-05-18 23:21:00,70.8,69.6,29.88,WSW,255,0.0,0.0,96,0.00,,,0.03,WeatherDisplay:10.37,2013-05-19 04:21:00,
2013-05-18 23:26:00,70.9,69.7,29.88,WSW,255,0.0,0.0,96,0.00,,,0.03,WeatherDisplay:10.37,2013-05-19 04:26:00,
2013-05-18 23:31:00,70.9,69.7,29.88,WSW,255,0.0,0.0,96,0.00,,,0.03,WeatherDisplay:10.37,2013-05-19 04:31:00,
2013-05-18 23:36:00,70.9,69.7,29.88,WSW,255,0.0,0.0,96,0.00,,,0.03,WeatherDisplay:10.37,2013-05-19 04:36:00,
2013-05-18 23:41:00,70.9,69.7,29.88,WSW,255,0.0,0.0,96,0.00,,,0.03,WeatherDisplay:10.37,2013-05-19 04:41:00,
2013-05-18 23:46:00,70.9,69.7,29.88,WSW,255,0.0,0.0,96,0.00,,,0.03,WeatherDisplay:10.37,2013-05-19 04:46:00,
2013-05-18 23:51:00,70.8,69.6,29.88,WSW,255,0.0,0.0,96,0.00,,,0.03,WeatherDisplay:10.37,2013-05-19 04:51:00,
2013-05-18 23:56:00,70.8,69.6,29.88,WSW,255,0.0,0.0,96,0.00,,,0.03,WeatherDisplay:10.37,2013-05-19 04:56:00,